Time;durP1;ratioP1;P1;durP2;ratioP2;P2;SDS_P1;SDS_P2;PMS_P1;PMS_P2;Temp;Humidity;BMP_temperature;BMP_pressure;BME280_temperature;BME280_humidity;BME280_pressure;Samples;Min_cycle;Max_cycle;Signal;HPM_P1;HPM_P2
2022/06/16 00:02:00;;;;;;;3.47;2.50;;;;;;;14.46;81.49;100428.94;5052824;28;20444;-68
2022/06/16 00:04:26;;;;;;;6.60;2.50;;;;;;;14.47;82.90;100433.28;5053298;28;20033;-72
2022/06/16 00:06:55;;;;;;;2.90;2.07;;;;;;;14.35;83.11;100421.38;5051838;28;20511;-70
2022/06/16 00:09:22;;;;;;;2.90;2.28;;;;;;;14.37;83.80;100438.09;5053068;28;20128;-69
2022/06/16 00:11:47;;;;;;;3.63;3.27;;;;;;;14.22;84.26;100434.69;5053197;28;20040;-71
2022/06/16 00:14:13;;;;;;;2.60;2.40;;;;;;;14.23;84.86;100433.66;5053171;28;20090;-70
2022/06/16 00:16:38;;;;;;;2.87;2.67;;;;;;;14.20;84.80;100450.13;5035238;28;20036;-71
2022/06/16 00:19:04;;;;;;;4.53;2.60;;;;;;;14.10;85.18;100444.25;5052892;28;20035;-69
2022/06/16 00:21:30;;;;;;;2.50;2.30;;;;;;;14.07;85.20;100447.31;5053312;28;20452;-71
2022/06/16 00:23:55;;;;;;;3.10;2.70;;;;;;;13.93;85.61;100420.44;5053006;28;20033;-68
2022/06/16 00:26:24;;;;;;;2.70;2.50;;;;;;;13.98;83.97;100440.47;5051675;28;20116;-71
2022/06/16 00:28:49;;;;;;;;;;;;;;;14.00;83.13;100443.78;5053251;28;20071;-69
2022/06/16 00:31:18;;;;;;;2.80;2.60;;;;;;;13.72;82.17;100406.25;5052914;28;20323;-70
2022/06/16 00:33:45;;;;;;;2.67;2.47;;;;;;;13.40;81.50;100362.91;5052760;28;20036;-70
2022/06/16 00:36:11;;;;;;;2.10;1.90;;;;;;;13.77;81.12;100433.25;5051622;28;20503;-70
2022/06/16 00:38:37;;;;;;;2.63;2.43;;;;;;;13.77;81.03;100438.59;5053997;28;20463;-68
2022/06/16 00:41:03;;;;;;;4.73;2.33;;;;;;;13.73;80.73;100437.34;5052212;28;20094;-70
2022/06/16 00:43:29;;;;;;;2.90;2.40;;;;;;;13.72;80.49;100451.75;5053295;28;20040;-70
2022/06/16 00:45:55;;;;;;;5.40;2.20;;;;;;;13.73;79.95;100453.41;5052580;28;20052;-68
2022/06/16 00:48:32;;;;;;;2.57;2.13;;;;;;;13.63;80.06;100443.00;5054964;28;20124;-68
2022/06/16 00:51:05;;;;;;;4.80;2.27;;;;;;;13.59;79.52;100453.28;5055280;28;20496;-69
2022/06/16 00:53:31;;;;;;;7.00;2.30;;;;;;;13.64;79.38;100466.91;5053956;28;20053;-70
2022/06/16 00:55:57;;;;;;;2.73;1.93;;;;;;;13.55;79.28;100457.31;5052406;28;20044;-68
2022/06/16 00:58:26;;;;;;;4.23;2.10;;;;;;;13.44;79.32;100436.41;5051016;28;20095;-68
2022/06/16 01:00:52;;;;;;;2.20;1.90;;;;;;;13.33;78.22;100427.06;5052359;28;20410;-70
2022/06/16 01:06:17;;;;;;;3.80;1.83;;;;;;;13.27;78.69;100433.13;5052280;28;20428;-70
2022/06/16 01:08:44;;;;;;;3.10;1.60;;;;;;;13.47;78.95;100475.34;5052113;28;20037;-68
2022/06/16 01:13:41;;;;;;;2.70;2.50;;;;;;;13.45;78.74;100485.41;5052177;28;20044;-70
2022/06/16 01:14:09;;;;;;;3.30;2.23;;;;;;;13.46;79.36;100495.09;5051456;28;20443;-71
2022/06/16 01:16:43;;;;;;;2.23;1.73;;;;;;;13.37;79.91;100494.38;5050971;28;20056;-67
2022/06/16 01:19:49;;;;;;;2.20;2.00;;;;;;;13.35;79.92;100492.91;5052231;28;20033;-68
2022/06/16 01:22:44;;;;;;;2.00;1.80;;;;;;;13.29;79.05;100492.59;5052040;28;20040;-70
2022/06/16 01:25:28;;;;;;;3.07;2.33;;;;;;;13.25;79.10;100472.59;5052131;28;20041;-70
2022/06/16 01:28:11;;;;;;;2.67;2.27;;;;;;;13.32;78.83;100497.59;5051896;28;20044;-69
2022/06/16 01:30:52;;;;;;;2.80;2.23;;;;;;;13.16;78.53;100473.69;5052315;28;20048;-71
2022/06/16 01:33:25;;;;;;;2.30;2.10;;;;;;;13.30;77.88;100496.97;5052014;28;20036;-69
2022/06/16 01:36:03;;;;;;;3.73;1.97;;;;;;;13.28;78.00;100484.78;5052106;28;20486;-70
2022/06/16 01:38:32;;;;;;;6.32;2.00;;;;;;;13.36;78.36;100508.75;5051815;28;20132;-70
2022/06/16 01:41:19;;;;;;;1.92;1.55;;;;;;;13.26;77.57;100495.66;5050281;28;20037;-73
2022/06/16 01:43:52;;;;;;;1.87;1.77;;;;;;;13.24;78.37;100500.38;5052082;28;20098;-70
2022/06/16 01:46:26;;;;;;;2.07;1.90;;;;;;;13.23;77.85;100506.72;5050398;28;20037;-69
2022/06/16 01:49:00;;;;;;;2.00;1.90;;;;;;;13.25;77.36;100520.75;5051642;28;20033;-71
2022/06/16 01:51:44;;;;;;;2.43;2.10;;;;;;;13.10;77.46;100492.34;5051841;28;20040;-69
2022/06/16 01:54:40;;;;;;;2.27;1.90;;;;;;;13.16;77.33;100508.47;5051583;28;20570;-68
2022/06/16 01:57:14;;;;;;;2.40;2.20;;;;;;;13.17;77.21;100507.47;5051940;28;20072;-69
2022/06/16 01:59:39;;;;;;;2.20;2.00;;;;;;;13.25;76.79;100530.59;5051625;28;20033;-70
2022/06/16 02:02:11;;;;;;;4.97;2.20;;;;;;;13.27;76.43;100529.41;5051841;28;20052;-70
2022/06/16 02:04:48;;;;;;;1.73;1.63;;;;;;;13.32;76.57;100537.72;5051098;28;20041;-68
2022/06/16 02:07:19;;;;;;;2.40;1.87;;;;;;;13.31;75.98;100530.72;5052913;28;20045;-71
2022/06/16 02:09:49;;;;;;;6.83;1.77;;;;;;;13.29;76.24;100527.38;5053252;28;20288;-71
2022/06/16 02:15:13;;;;;;;2.30;1.90;;;;;;;13.32;76.37;100529.69;5071906;28;20120;-67
2022/06/16 02:17:38;;;;;;;2.17;1.60;;;;;;;13.37;75.60;100536.34;5072174;28;20048;-69
2022/06/16 02:20:04;;;;;;;4.60;1.70;;;;;;;13.35;75.58;100533.03;5063486;28;20033;-70
2022/06/16 02:22:31;;;;;;;2.40;2.20;;;;;;;13.33;75.93;100527.88;5051953;28;20098;-70
2022/06/16 02:24:57;;;;;;;2.50;2.20;;;;;;;13.22;75.49;100518.44;5054040;28;20041;-69
2022/06/16 02:27:22;;;;;;;2.70;2.13;;;;;;;13.28;75.62;100533.75;5055408;28;20063;-67
2022/06/16 02:29:48;;;;;;;2.23;1.77;;;;;;;13.32;74.88;100527.03;5055134;28;20025;-69
2022/06/16 02:32:52;;;;;;;1.87;1.77;;;;;;;13.41;74.47;100527.75;5053634;28;20059;-68
2022/06/16 02:35:40;;;;;;;2.60;1.93;;;;;;;13.44;74.69;100539.91;5049863;28;20043;-71
2022/06/16 02:38:27;;;;;;;1.88;1.45;;;;;;;13.44;74.88;100539.91;5053687;28;20037;-68
2022/06/16 02:40:59;;;;;;;2.70;1.83;;;;;;;13.45;74.79;100531.72;5055124;28;20037;-71
2022/06/16 02:43:52;;;;;;;1.93;1.60;;;;;;;13.48;74.72;100538.53;5054901;28;20083;-68
2022/06/16 02:46:47;;;;;;;3.03;2.83;;;;;;;13.40;74.11;100522.59;5054805;28;20127;-70
2022/06/16 02:49:45;;;;;;;2.03;1.83;;;;;;;13.49;74.32;100529.47;5054948;28;20073;-70
2022/06/16 02:52:17;;;;;;;2.20;2.10;;;;;;;14.39;71.71;100534.34;5054777;28;20491;-68
2022/06/16 02:55:01;;;;;;;2.53;2.33;;;;;;;16.67;65.43;100519.66;5054758;28;20051;-69
2022/06/16 02:57:39;;;;;;;2.80;2.60;;;;;;;18.83;57.56;100526.91;5054755;28;20043;-70
2022/06/16 03:00:10;;;;;;;2.30;2.10;;;;;;;20.10;52.55;100522.44;5054575;28;20037;-70
2022/06/16 03:02:38;;;;;;;2.40;2.20;;;;;;;20.84;49.51;100543.78;5054610;28;20132;-70
2022/06/16 03:05:05;;;;;;;1.80;1.70;;;;;;;21.33;47.91;100532.44;5053251;28;20029;-71
2022/06/16 03:07:34;;;;;;;2.90;2.13;;;;;;;21.97;46.11;100554.03;5054501;28;20067;-70
2022/06/16 03:10:00;;;;;;;2.28;1.77;;;;;;;22.32;45.04;100523.22;5054090;28;20542;-70
2022/06/16 03:12:26;;;;;;;2.10;2.00;;;;;;;22.78;43.98;100503.88;5054154;28;20063;-68
2022/06/16 03:14:51;;;;;;;1.75;1.65;;;;;;;23.38;42.92;100543.84;5054197;28;20069;-70
2022/06/16 03:17:17;;;;;;;1.70;1.60;;;;;;;23.75;41.96;100544.06;5054210;28;20029;-68
2022/06/16 03:19:43;;;;;;;1.90;1.80;;;;;;;23.70;41.12;100540.44;5054414;28;20381;-71
2022/06/16 03:22:09;;;;;;;2.05;1.40;;;;;;;23.89;41.07;100549.09;5054077;28;20032;-68
2022/06/16 03:24:34;;;;;;;2.40;1.90;;;;;;;23.67;40.68;100530.09;5053980;28;20076;-71
2022/06/16 03:27:00;;;;;;;2.00;1.73;;;;;;;23.85;40.46;100542.53;5053839;28;20067;-71
2022/06/16 03:29:26;;;;;;;3.50;1.58;;;;;;;24.09;41.31;100554.75;5053864;28;20029;-69
2022/06/16 03:31:53;;;;;;;1.67;1.58;;;;;;;24.42;39.84;100548.28;5053869;28;20464;-69
2022/06/16 03:34:18;;;;;;;7.18;1.70;;;;;;;24.62;39.42;100547.66;5053612;28;20507;-71
2022/06/16 03:36:44;;;;;;;1.65;1.48;;;;;;;24.57;39.02;100523.06;5052833;28;20029;-70
2022/06/16 03:39:10;;;;;;;2.17;1.98;;;;;;;24.64;38.94;100545.47;5053642;28;20397;-70
2022/06/16 03:41:35;;;;;;;2.60;1.60;;;;;;;24.84;38.43;100566.56;5053597;28;20450;-71
2022/06/16 03:44:01;;;;;;;3.53;1.25;;;;;;;24.28;39.29;100558.75;5053219;28;20040;-69
2022/06/16 03:46:26;;;;;;;3.63;1.58;;;;;;;24.50;39.50;100558.69;5053690;28;20045;-69
2022/06/16 03:48:52;;;;;;;2.05;1.20;;;;;;;24.27;39.62;100521.72;5053546;28;20041;-69
2022/06/16 03:51:21;;;;;;;1.40;1.25;;;;;;;23.96;39.70;100555.16;5053587;28;20133;-71
2022/06/16 03:53:49;;;;;;;2.40;1.10;;;;;;;23.30;41.58;100562.47;5053286;28;20049;-69
2022/06/16 03:56:15;;;;;;;1.60;1.50;;;;;;;23.54;41.29;100574.75;5053118;28;20040;-70
2022/06/16 03:58:40;;;;;;;6.88;1.92;;;;;;;23.57;40.94;100557.97;5053385;28;20519;-69
2022/06/16 04:01:06;;;;;;;1.35;1.20;;;;;;;23.46;40.69;100539.88;5053397;28;20512;-70
2022/06/16 04:06:16;;;;;;;1.52;1.42;;;;;;;24.51;39.24;100556.78;5053236;28;20071;-69
2022/06/16 04:08:42;;;;;;;2.78;1.30;;;;;;;24.60;39.27;100556.06;5052089;28;20455;-71
2022/06/16 04:11:26;;;;;;;2.28;2.00;;;;;;;24.92;39.10;100560.66;5053408;28;20134;-73
2022/06/16 04:14:00;;;;;;;1.30;1.20;;;;;;;24.50;38.59;100549.72;5053334;28;20025;-68
2022/06/16 04:16:32;;;;;;;2.20;1.95;;;;;;;23.73;39.45;100550.84;5053131;28;20041;-70
2022/06/16 04:18:58;;;;;;;1.92;1.70;;;;;;;24.13;39.58;100547.72;5052764;28;20037;-70
2022/06/16 04:21:24;;;;;;;2.78;1.20;;;;;;;24.00;39.27;100550.88;5052942;28;20492;-69
2022/06/16 04:23:50;;;;;;;4.28;1.90;;;;;;;23.98;39.98;100563.88;5052962;28;20089;-71
2022/06/16 04:26:16;;;;;;;1.92;1.63;;;;;;;23.45;41.25;100565.41;5053058;28;20114;-71
2022/06/16 04:28:41;;;;;;;3.60;1.88;;;;;;;23.50;41.08;100532.84;5052657;28;20480;-69
2022/06/16 04:31:07;;;;;;;2.60;1.65;;;;;;;23.29;40.76;100558.94;5051573;28;20124;-68
2022/06/16 04:33:33;;;;;;;2.40;1.67;;;;;;;23.09;41.71;100551.31;5052535;28;20036;-69
2022/06/16 04:35:59;;;;;;;2.30;1.50;;;;;;;23.55;41.62;100557.38;5052605;28;20041;-72
2022/06/16 04:38:26;;;;;;;3.33;1.20;;;;;;;23.87;40.69;100567.56;5051502;28;20045;-71
2022/06/16 04:40:52;;;;;;;2.88;1.20;;;;;;;22.53;44.02;100574.03;5052965;28;20408;-70
2022/06/16 04:43:17;;;;;;;6.20;1.88;;;;;;;21.98;45.46;100568.44;5052608;28;20037;-70
2022/06/16 04:45:43;;;;;;;2.88;1.25;;;;;;;22.10;45.54;100561.09;5052545;28;20044;-69
2022/06/16 04:48:09;;;;;;;4.53;1.20;;;;;;;21.75;46.20;100525.97;5052255;28;20569;-71
2022/06/16 04:50:36;;;;;;;4.18;1.55;;;;;;;22.39;44.60;100530.13;5051267;28;20039;-70
2022/06/16 04:53:02;;;;;;;2.25;1.70;;;;;;;22.99;43.89;100577.53;5052324;28;20060;-72
2022/06/16 04:55:28;;;;;;;1.77;1.63;;;;;;;23.68;41.99;100554.28;5051974;28;20407;-70
2022/06/16 04:57:54;;;;;;;2.65;1.58;;;;;;;23.94;40.52;100574.44;5052345;28;20067;-69
2022/06/16 05:00:20;;;;;;;3.08;1.60;;;;;;;23.59;41.92;100555.81;5052260;28;20033;-68
2022/06/16 05:02:46;;;;;;;1.42;1.33;;;;;;;23.62;41.74;100557.22;5051916;28;20040;-69
2022/06/16 05:05:12;;;;;;;4.22;1.15;;;;;;;23.27;41.50;100580.13;5050015;28;20090;-68
2022/06/16 05:07:37;;;;;;;1.83;1.70;;;;;;;22.77;41.71;100569.28;5051941;28;20036;-68
2022/06/16 05:10:03;;;;;;;2.75;1.27;;;;;;;22.30;43.65;100564.16;5052107;28;20538;-70
2022/06/16 05:12:29;;;;;;;2.75;1.35;;;;;;;22.34;42.46;100576.19;5051826;28;20041;-68
2022/06/16 05:14:55;;;;;;;1.80;1.70;;;;;;;21.66;44.53;100566.16;5051970;28;20036;-69
2022/06/16 05:17:20;;;;;;;1.52;1.42;;;;;;;21.67;44.52;100577.81;5051852;28;20036;-69
2022/06/16 05:19:46;;;;;;;5.65;1.88;;;;;;;21.39;45.03;100571.28;5050962;28;20037;-69
2022/06/16 05:22:12;;;;;;;4.55;1.77;;;;;;;21.24;45.94;100579.09;5051683;28;20086;-69
2022/06/16 05:24:37;;;;;;;2.03;1.42;;;;;;;20.88;46.21;100577.44;5052144;28;20048;-71
2022/06/16 05:27:04;;;;;;;2.88;1.52;;;;;;;20.25;48.90;100584.22;5050564;28;20029;-71
2022/06/16 05:29:33;;;;;;;2.58;1.58;;;;;;;19.24;52.34;100575.91;5051897;28;20036;-69
2022/06/16 05:31:59;;;;;;;1.33;1.05;;;;;;;18.48;54.38;100568.84;5050362;28;20029;-71
2022/06/16 05:34:25;;;;;;;1.83;1.00;;;;;;;17.87;56.00;100566.75;5051853;28;20033;-70
2022/06/16 05:36:51;;;;;;;4.20;1.80;;;;;;;17.40;57.61;100574.16;5051011;28;20044;-69
2022/06/16 05:39:16;;;;;;;2.03;1.25;;;;;;;16.99;57.82;100566.38;5051708;28;20025;-70
2022/06/16 05:41:42;;;;;;;5.78;1.30;;;;;;;16.59;60.03;100560.19;5052024;28;20043;-65
2022/06/16 05:44:09;;;;;;;2.08;1.42;;;;;;;16.68;60.34;100559.78;5052054;28;20048;-68
2022/06/16 05:46:35;;;;;;;4.43;1.48;;;;;;;16.68;60.53;100580.47;5051947;28;20086;-68
2022/06/16 05:49:01;;;;;;;5.28;1.95;;;;;;;16.63;60.69;100577.53;5051925;28;20029;-67
2022/06/16 05:51:27;;;;;;;4.18;1.58;;;;;;;16.72;60.68;100577.16;5050690;28;20033;-67
2022/06/16 05:53:55;;;;;;;3.53;1.73;;;;;;;16.70;60.31;100567.63;5051855;28;20072;-69
2022/06/16 05:56:20;;;;;;;2.03;1.50;;;;;;;16.55;60.21;100542.81;5033644;28;20522;-69
2022/06/16 05:58:46;;;;;;;4.05;2.15;;;;;;;16.74;60.97;100568.88;5051268;28;20033;-68
2022/06/16 06:01:13;;;;;;;3.72;1.45;;;;;;;16.79;60.60;100577.19;5054733;28;20045;-68
2022/06/16 06:03:40;;;;;;;4.47;1.45;;;;;;;16.67;59.71;100590.41;5044531;28;20099;-66
2022/06/16 06:06:07;;;;;;;7.47;2.42;;;;;;;16.60;60.49;100588.72;5046402;28;20128;-65
2022/06/16 06:16:49;;;;;;;3.90;1.73;;;;;;;16.47;61.27;100577.94;5035645;28;20122;-66
2022/06/16 06:19:24;;;;;;;5.30;1.73;;;;;;;16.54;61.78;100578.78;5035069;28;20120;-63
2022/06/16 06:22:05;;;;;;;4.22;2.35;;;;;;;16.68;60.58;100575.09;5035354;28;20033;-64
2022/06/16 06:24:36;;;;;;;6.32;3.35;;;;;;;16.84;59.65;100577.38;5036870;28;20053;-67
2022/06/16 06:27:12;;;;;;;5.55;1.85;;;;;;;17.12;60.55;100603.22;5038224;28;20048;-75
2022/06/16 06:29:38;;;;;;;5.53;2.78;;;;;;;17.15;59.18;100575.88;5037990;28;20041;-66
2022/06/16 06:32:04;;;;;;;5.00;1.92;;;;;;;17.21;59.01;100596.56;5034732;28;20112;-66
2022/06/16 06:34:30;;;;;;;3.75;1.75;;;;;;;16.72;59.71;100569.09;5034439;28;20049;-64
2022/06/16 06:36:55;;;;;;;7.00;2.15;;;;;;;16.85;59.83;100615.84;5034551;28;20042;-63
2022/06/16 06:39:22;;;;;;;9.45;2.47;;;;;;;16.65;60.54;100599.69;5034802;28;20045;-62
2022/06/16 06:41:48;;;;;;;8.68;2.03;;;;;;;16.59;59.82;100614.78;5034238;28;20408;-66
2022/06/16 06:44:14;;;;;;;8.55;1.95;;;;;;;16.64;59.78;100619.53;5034694;28;20052;-67
2022/06/16 06:46:40;;;;;;;5.47;1.92;;;;;;;16.72;59.87;100625.56;5034589;28;20103;-68
2022/06/16 06:49:06;;;;;;;4.13;1.83;;;;;;;16.75;59.33;100618.94;5033703;28;20029;-66
2022/06/16 06:51:32;;;;;;;6.40;2.17;;;;;;;16.66;59.42;100604.06;5034497;28;20500;-67
2022/06/16 06:53:59;;;;;;;9.37;2.30;;;;;;;16.69;59.83;100598.25;5034784;28;20131;-65
2022/06/16 06:56:28;;;;;;;7.57;2.15;;;;;;;16.62;60.68;100597.41;5033435;28;20412;-66
2022/06/16 06:58:54;;;;;;;14.32;2.30;;;;;;;17.04;58.75;100623.91;5034509;28;20525;-66
2022/06/16 07:01:20;;;;;;;7.80;2.25;;;;;;;17.07;58.42;100606.53;5034463;28;20421;-66
2022/06/16 07:03:47;;;;;;;4.03;1.90;;;;;;;17.15;58.24;100609.00;5034235;28;20037;-67
2022/06/16 07:06:12;;;;;;;17.92;2.85;;;;;;;17.30;58.15;100638.38;5034563;28;20037;-74
2022/06/16 07:08:38;;;;;;;5.10;1.67;;;;;;;17.38;58.13;100637.34;5034642;28;20045;-69
2022/06/16 07:11:04;;;;;;;4.20;2.00;;;;;;;17.23;58.21;100641.06;5034315;28;20043;-66
2022/06/16 07:13:29;;;;;;;4.18;1.75;;;;;;;17.13;59.20;100647.94;5034230;28;20041;-68
2022/06/16 07:16:21;;;;;;;3.10;2.00;;;;;;;16.59;59.37;100622.00;5034077;28;20141;-69
2022/06/16 07:18:47;;;;;;;7.82;2.15;;;;;;;16.48;60.29;100617.22;5034246;28;20136;-68
2022/06/16 07:21:15;;;;;;;6.35;2.17;;;;;;;16.87;58.31;100664.88;5034185;28;20072;-65
2022/06/16 07:23:42;;;;;;;26.60;3.05;;;;;;;16.79;57.98;100628.28;5034187;28;20033;-68
2022/06/16 07:26:09;;;;;;;10.30;2.90;;;;;;;16.99;57.87;100664.06;5034146;28;20044;-66
2022/06/16 07:28:35;;;;;;;5.78;2.60;;;;;;;16.97;56.73;100641.91;5035566;28;20037;-67
2022/06/16 07:31:00;;;;;;;6.60;2.00;;;;;;;17.03;56.09;100654.53;5017116;28;20137;-67
2022/06/16 07:33:26;;;;;;;2.70;2.38;;;;;;;17.30;55.46;100670.66;5034020;28;20040;-68
2022/06/16 07:35:53;;;;;;;37.53;3.90;;;;;;;17.42;56.21;100669.00;5033988;28;20047;-71
2022/06/16 07:38:20;;;;;;;5.15;1.92;;;;;;;17.42;56.26;100655.53;5033772;28;20041;-66
2022/06/16 07:40:46;;;;;;;10.95;2.35;;;;;;;17.11;56.47;100647.31;5033920;28;20115;-65
2022/06/16 07:43:11;;;;;;;3.83;2.55;;;;;;;17.26;57.48;100688.28;5033428;28;20493;-66
2022/06/16 07:45:39;;;;;;;1.95;1.50;;;;;;;17.16;57.08;100671.72;5034077;28;20037;-67
2022/06/16 07:48:06;;;;;;;10.88;2.72;;;;;;;17.10;55.80;100675.25;5034415;28;20057;-68
2022/06/16 07:50:33;;;;;;;3.17;2.28;;;;;;;17.06;57.65;100679.38;5032881;28;20492;-66
2022/06/16 07:52:59;;;;;;;4.40;1.67;;;;;;;16.56;59.35;100646.63;5033309;28;20085;-68
2022/06/16 07:55:24;;;;;;;4.95;2.00;;;;;;;16.42;60.40;100665.41;5033266;28;20045;-67
2022/06/16 07:57:51;;;;;;;2.97;2.03;;;;;;;16.33;60.91;100672.00;5033275;28;20041;-66
2022/06/16 08:00:21;;;;;;;6.20;2.25;;;;;;;15.90;61.29;100584.63;5033516;28;20039;-66
2022/06/16 08:02:46;;;;;;;22.73;3.42;;;;;;;16.68;60.96;100674.59;5033153;28;20061;-67
2022/06/16 08:05:12;;;;;;;5.10;1.63;;;;;;;16.94;59.65;100685.38;5034188;28;20087;-73
2022/06/16 08:07:40;;;;;;;7.05;2.55;;;;;;;16.91;59.14;100688.47;5034109;28;20034;-69
2022/06/16 08:10:08;;;;;;;8.65;2.20;;;;;;;16.99;59.28;100711.66;5033851;28;20041;-70
2022/06/16 08:12:34;;;;;;;5.03;2.20;;;;;;;17.04;58.06;100706.47;5033037;28;20045;-69
2022/06/16 08:15:00;;;;;;;3.95;1.67;;;;;;;17.19;59.29;100690.16;5033089;28;20100;-71
2022/06/16 08:17:32;;;;;;;4.45;1.92;;;;;;;17.30;58.67;100701.09;5065032;28;20041;-69
2022/06/16 08:19:59;;;;;;;8.85;2.65;;;;;;;17.17;58.21;100706.50;5033208;28;20497;-69
2022/06/16 08:22:27;;;;;;;109.90;10.98;;;;;;;17.11;60.02;100726.16;5032439;28;20030;-69
2022/06/16 08:24:56;;;;;;;4.28;2.53;;;;;;;17.33;60.22;100713.31;5033136;28;20113;-67
2022/06/16 08:27:31;;;;;;;7.38;2.90;;;;;;;17.71;58.73;100699.22;5033536;28;20045;-67
2022/06/16 08:29:57;;;;;;;10.65;1.88;;;;;;;17.90;56.62;100712.63;5032618;28;20038;-69
2022/06/16 08:32:23;;;;;;;49.88;5.00;;;;;;;17.88;57.50;100705.78;5034314;28;20508;-68
2022/06/16 08:34:52;;;;;;;9.60;2.55;;;;;;;17.78;58.33;100705.41;5032945;28;20091;-67
2022/06/16 08:37:21;;;;;;;13.93;3.70;;;;;;;17.84;57.51;100704.56;5034267;28;20500;-69
2022/06/16 08:39:47;;;;;;;9.80;2.70;;;;;;;17.72;57.29;100717.03;5034528;28;20044;-68
2022/06/16 08:42:31;;;;;;;13.65;2.63;;;;;;;17.81;58.26;100705.00;5033169;28;20040;-73
2022/06/16 08:44:59;;;;;;;4.82;2.03;;;;;;;17.85;57.98;100722.38;5035380;28;20441;-67
2022/06/16 08:47:38;;;;;;;7.55;2.00;;;;;;;17.89;56.78;100720.91;5035348;28;20045;-67
2022/06/16 08:50:22;;;;;;;99.60;8.93;;;;;;;17.53;58.22;100692.59;5034010;28;20030;-66
2022/06/16 08:53:03;;;;;;;3.85;1.75;;;;;;;17.76;57.70;100743.34;5033977;28;20045;-68
2022/06/16 08:56:09;;;;;;;31.35;5.72;;;;;;;17.81;56.58;100742.72;5033089;28;20443;-67
2022/06/16 08:59:12;;;;;;;8.90;2.33;;;;;;;17.80;57.62;100751.81;5031439;28;20037;-65
2022/06/16 09:01:49;;;;;;;46.17;4.90;;;;;;;17.84;57.54;100747.66;5033541;28;20045;-66
2022/06/16 09:04:48;;;;;;;9.77;2.45;;;;;;;17.84;57.19;100736.91;5033041;28;20046;-68
2022/06/16 09:07:13;;;;;;;26.65;3.40;;;;;;;17.83;57.00;100744.16;5033220;28;20047;-66
2022/06/16 09:13:09;;;;;;;6.97;2.03;;;;;;;17.63;57.85;100757.59;5033441;28;20041;-67
2022/06/16 09:15:48;;;;;;;8.63;2.28;;;;;;;17.50;58.65;100756.81;5037992;28;20099;-67
2022/06/16 09:18:46;;;;;;;10.82;2.78;;;;;;;17.51;58.57;100755.78;5040293;28;20073;-68
2022/06/16 09:21:39;;;;;;;4.22;2.45;;;;;;;17.43;58.66;100764.88;5042351;28;20041;-64
2022/06/16 09:24:32;;;;;;;7.88;2.20;;;;;;;17.25;58.88;100756.59;5036989;28;20069;-66
2022/06/16 09:27:11;;;;;;;39.80;4.95;;;;;;;17.14;59.91;100767.97;5032302;28;20120;-63
2022/06/16 09:29:56;;;;;;;3.85;2.22;;;;;;;16.79;60.87;100737.72;5031810;28;20087;-66
2022/06/16 09:32:36;;;;;;;70.97;8.63;;;;;;;16.84;60.38;100779.09;5032452;28;20064;-66
2022/06/16 09:35:05;;;;;;;26.58;2.53;;;;;;;16.85;60.69;100772.69;5034733;28;20064;-67
2022/06/16 09:37:42;;;;;;;6.68;2.15;;;;;;;16.78;61.08;100769.16;5034708;28;20370;-68
2022/06/16 09:40:27;;;;;;;17.85;3.25;;;;;;;16.95;60.46;100767.72;5034890;28;20120;-67
2022/06/16 09:43:06;;;;;;;5.88;2.45;;;;;;;17.16;59.83;100782.88;5036310;28;20471;-64
2022/06/16 09:45:37;;;;;;;8.52;2.08;;;;;;;17.07;59.69;100767.97;5036119;28;20518;-63
2022/06/16 09:48:21;;;;;;;45.85;5.32;;;;;;;17.33;59.47;100796.75;5035804;28;20068;-65
2022/06/16 09:50:56;;;;;;;24.77;2.67;;;;;;;17.44;58.14;100795.34;5034666;28;20060;-64
2022/06/16 09:53:40;;;;;;;20.95;3.67;;;;;;;17.59;57.75;100782.47;5035797;28;20054;-65
2022/06/16 09:56:32;;;;;;;12.40;2.40;;;;;;;17.85;57.97;100804.03;5035551;28;20080;-66
2022/06/16 09:59:01;;;;;;;29.40;4.18;;;;;;;17.67;57.98;100776.94;5035716;28;20037;-66
2022/06/16 10:01:35;;;;;;;28.83;3.38;;;;;;;17.77;57.79;100790.78;5034449;28;20441;-66
2022/06/16 10:04:07;;;;;;;8.10;2.17;;;;;;;17.59;57.49;100755.53;5035608;28;20521;-65
2022/06/16 10:06:53;;;;;;;5.90;2.35;;;;;;;17.76;57.23;100761.38;5035556;28;20037;-68
2022/06/16 10:09:30;;;;;;;49.58;5.00;;;;;;;17.83;56.96;100813.38;5035576;28;20045;-67
2022/06/16 10:12:23;;;;;;;46.50;4.97;;;;;;;17.66;57.69;100799.47;5035703;28;20041;-65
2022/06/16 10:15:36;;;;;;;40.22;4.05;;;;;;;17.75;57.08;100808.19;5035437;28;20033;-67
2022/06/16 10:18:04;;;;;;;4.55;2.00;;;;;;;17.72;57.69;100812.16;5034600;28;20045;-67
2022/06/16 10:20:30;;;;;;;13.10;2.97;;;;;;;17.72;56.81;100808.63;5035270;28;20497;-66
2022/06/16 10:23:06;;;;;;;10.77;3.05;;;;;;;17.70;56.36;100811.53;5035133;28;20140;-71
2022/06/16 10:25:36;;;;;;;4.25;2.33;;;;;;;17.45;57.48;100800.50;5035159;28;20037;-65
2022/06/16 10:28:28;;;;;;;10.63;2.95;;;;;;;17.47;57.85;100811.06;5035066;28;20416;-72
2022/06/16 10:30:55;;;;;;;7.03;2.88;;;;;;;17.50;56.78;100800.72;5035393;28;20084;-68
2022/06/16 10:33:24;;;;;;;7.57;1.90;;;;;;;17.54;57.07;100812.72;5034973;28;20136;-66
2022/06/16 10:35:55;;;;;;;6.25;1.77;;;;;;;17.57;57.56;100796.16;5034751;28;20497;-68
2022/06/16 10:38:29;;;;;;;6.28;1.70;;;;;;;17.57;57.63;100811.47;5033475;28;20064;-67
2022/06/16 10:40:56;;;;;;;4.57;1.85;;;;;;;17.47;57.08;100798.44;5035034;28;20033;-70
2022/06/16 10:43:22;;;;;;;6.90;2.88;;;;;;;17.28;55.95;100823.47;5035098;28;20053;-69
2022/06/16 10:46:12;;;;;;;9.88;2.00;;;;;;;16.87;56.94;100777.84;5034417;28;20037;-67
2022/06/16 10:48:45;;;;;;;7.55;2.45;;;;;;;16.84;58.55;100762.13;5034394;28;20322;-71
2022/06/16 10:51:20;;;;;;;11.07;2.97;;;;;;;17.08;57.65;100803.78;5033660;28;20033;-71
2022/06/16 10:54:00;;;;;;;8.77;2.40;;;;;;;17.00;56.62;100800.22;5034502;28;20050;-73
2022/06/16 10:56:27;;;;;;;2.95;1.90;;;;;;;17.02;56.82;100827.75;5034754;28;20057;-67
2022/06/16 10:58:58;;;;;;;6.80;1.98;;;;;;;17.02;57.72;100819.69;5034672;28;20120;-69
2022/06/16 11:01:30;;;;;;;4.20;2.60;;;;;;;17.17;57.32;100810.63;5035659;28;20086;-66
2022/06/16 11:04:17;;;;;;;9.45;2.33;;;;;;;17.30;56.09;100827.59;5036682;28;20041;-66
2022/06/16 11:06:55;;;;;;;8.85;2.50;;;;;;;17.33;57.47;100802.97;5037058;28;20052;-66
2022/06/16 11:09:30;;;;;;;11.40;1.98;;;;;;;17.58;55.55;100802.34;5035777;28;20045;-66
2022/06/16 11:12:23;;;;;;;11.60;2.47;;;;;;;17.61;55.65;100832.41;5036298;28;20056;-67
2022/06/16 11:14:52;;;;;;;17.15;2.42;;;;;;;17.47;56.20;100817.28;5037108;28;20045;-69
2022/06/16 11:17:40;;;;;;;8.48;2.58;;;;;;;17.52;56.23;100822.03;5036780;28;20045;-66
2022/06/16 11:20:11;;;;;;;23.08;3.65;;;;;;;17.23;56.10;100832.16;5036179;28;20091;-65
2022/06/16 11:22:43;;;;;;;18.50;3.78;;;;;;;17.16;56.94;100807.09;5034566;28;20596;-66
2022/06/16 11:25:30;;;;;;;6.60;2.20;;;;;;;17.21;55.81;100838.78;5035704;28;20033;-65
2022/06/16 11:28:18;;;;;;;68.03;5.80;;;;;;;17.37;56.41;100841.09;5034452;28;20037;-65
2022/06/16 11:30:47;;;;;;;23.58;3.63;;;;;;;17.43;56.51;100845.66;5034253;28;20124;-67
2022/06/16 11:36:27;;;;;;;6.78;2.10;;;;;;;17.38;54.57;100823.91;5034065;28;19921;-68
2022/06/16 11:39:00;;;;;;;2.63;1.52;;;;;;;17.49;55.10;100844.81;5033918;28;20033;-66
2022/06/16 11:41:27;;;;;;;7.80;2.37;;;;;;;17.45;55.00;100848.97;5033960;28;20128;-64
2022/06/16 11:43:59;;;;;;;16.02;3.42;;;;;;;17.44;54.13;100833.03;5034492;28;20048;-68
2022/06/16 11:46:38;;;;;;;44.53;5.28;;;;;;;17.37;55.01;100821.44;5034637;28;20068;-69
2022/06/16 11:49:16;;;;;;;7.03;1.80;;;;;;;17.60;55.98;100838.81;5032346;28;20497;-73
2022/06/16 11:52:00;;;;;;;20.35;2.92;;;;;;;17.60;56.20;100835.28;5034140;28;20095;-70
2022/06/16 11:54:41;;;;;;;5.93;2.05;;;;;;;17.53;55.63;100864.91;5033562;28;20060;-70
2022/06/16 11:57:15;;;;;;;4.93;2.05;;;;;;;17.63;56.32;100853.72;5032625;28;20508;-67
2022/06/16 12:00:07;;;;;;;10.07;2.10;;;;;;;17.54;56.52;100828.88;5033515;28;20042;-69
2022/06/16 12:02:38;;;;;;;12.00;2.35;;;;;;;17.63;56.62;100856.44;5032256;28;20554;-73
2022/06/16 12:05:34;;;;;;;11.98;3.58;;;;;;;17.44;56.78;100860.78;5033065;28;20041;-65
2022/06/16 12:08:18;;;;;;;12.23;3.40;;;;;;;17.22;56.22;100854.72;5033231;28;20691;-68
2022/06/16 12:10:50;;;;;;;9.65;2.50;;;;;;;17.16;56.43;100830.50;5033153;28;20040;-67